createdAt,value
2023-01-07T00:01:44.771Z,10.29
2023-01-07T00:04:17.067Z,10.09
2023-01-07T00:06:45.250Z,10.16
2023-01-07T00:09:21.068Z,10.29
2023-01-07T00:11:55.783Z,10.39
2023-01-07T00:14:25.143Z,10.00
2023-01-07T00:16:58.188Z,10.68
2023-01-07T00:19:24.941Z,10.68
2023-01-07T00:21:55.134Z,10.40
2023-01-07T00:24:25.000Z,9.99
2023-01-07T00:26:51.632Z,9.90
2023-01-07T00:29:21.634Z,9.75
2023-01-07T00:31:57.632Z,10.07
2023-01-07T00:34:24.699Z,9.97
2023-01-07T00:37:03.981Z,9.94
2023-01-07T00:39:38.769Z,10.11
2023-01-07T00:42:07.164Z,10.44
2023-01-07T00:44:36.817Z,10.33
2023-01-07T00:47:03.738Z,10.01
2023-01-07T00:49:35.664Z,9.81
2023-01-07T00:52:05.506Z,10.16
2023-01-07T00:54:34.702Z,10.22
2023-01-07T00:57:01.364Z,10.54
2023-01-07T01:02:16.433Z,10.26
2023-01-07T01:04:43.597Z,10.10
2023-01-07T01:07:10.361Z,10.11
2023-01-07T01:09:43.160Z,10.03
2023-01-07T01:12:12.254Z,10.00
2023-01-07T01:14:40.134Z,9.89
2023-01-07T01:17:18.789Z,9.83
2023-01-07T01:19:48.612Z,10.10
2023-01-07T01:22:17.879Z,9.77
2023-01-07T01:24:44.683Z,10.11
2023-01-07T01:27:12.000Z,10.04
2023-01-07T01:29:41.750Z,10.01
2023-01-07T01:32:12.029Z,9.79
2023-01-07T01:34:38.676Z,9.68
2023-01-07T01:37:05.672Z,9.75
2023-01-07T01:39:39.057Z,9.80
2023-01-07T01:42:08.874Z,9.81
2023-01-07T01:44:44.622Z,9.70
2023-01-07T01:47:38.958Z,9.60
2023-01-07T01:50:06.055Z,9.79
2023-01-07T01:53:04.266Z,9.71
2023-01-07T01:55:41.414Z,9.68
2023-01-07T01:58:12.047Z,9.66
2023-01-07T02:00:43.302Z,9.68
2023-01-07T02:03:13.681Z,9.64
2023-01-07T02:05:44.220Z,9.55
2023-01-07T02:08:10.929Z,9.87
2023-01-07T02:10:40.814Z,9.72
2023-01-07T02:13:30.811Z,9.84
2023-01-07T02:16:23.833Z,9.68
2023-01-07T02:18:59.482Z,9.59
2023-01-07T02:21:47.153Z,9.60
2023-01-07T02:24:51.286Z,9.55
2023-01-07T02:27:42.163Z,9.64
2023-01-07T02:30:13.118Z,9.65
2023-01-07T02:32:45.609Z,9.56
2023-01-07T02:35:52.365Z,9.58
2023-01-07T02:38:53.849Z,9.55
2023-01-07T02:41:39.710Z,9.55
2023-01-07T02:44:59.785Z,9.51
2023-01-07T02:47:31.841Z,9.51
2023-01-07T02:50:01.392Z,9.57
2023-01-07T02:52:34.705Z,9.66
2023-01-07T02:55:13.384Z,10.19
2023-01-07T02:58:01.863Z,9.96
2023-01-07T03:00:40.450Z,10.06
2023-01-07T03:03:25.091Z,9.82
2023-01-07T03:06:13.849Z,9.93
2023-01-07T03:09:06.946Z,9.72
2023-01-07T03:11:42.129Z,9.65
2023-01-07T03:14:20.943Z,9.61
2023-01-07T03:16:55.417Z,9.56
2023-01-07T03:19:31.523Z,9.54
2023-01-07T03:22:08.562Z,9.55
2023-01-07T03:24:36.088Z,9.60
2023-01-07T03:27:08.464Z,9.76
2023-01-07T03:29:35.275Z,10.11
2023-01-07T03:32:05.158Z,9.91
2023-01-07T03:34:34.441Z,9.72
2023-01-07T03:37:05.174Z,9.80
2023-01-07T03:39:35.312Z,10.31
2023-01-07T03:42:12.959Z,9.89
2023-01-07T03:44:39.836Z,9.77
2023-01-07T03:47:10.092Z,9.65
2023-01-07T03:49:40.457Z,9.52
2023-01-07T03:52:07.202Z,9.49
2023-01-07T03:54:42.054Z,9.51
2023-01-07T03:57:11.821Z,9.54
2023-01-07T03:59:38.512Z,9.59
2023-01-07T04:02:08.022Z,9.52
2023-01-07T04:04:34.898Z,10.39
2023-01-07T04:07:04.582Z,10.08
2023-01-07T04:09:31.365Z,10.46
2023-01-07T04:12:00.349Z,10.71
2023-01-07T04:14:28.109Z,10.38
2023-01-07T04:16:54.864Z,10.03
2023-01-07T04:19:28.033Z,9.83
2023-01-07T04:21:59.831Z,9.66
2023-01-07T04:24:26.571Z,9.52
2023-01-07T04:26:57.644Z,9.42
2023-01-07T04:29:24.340Z,9.41
2023-01-07T04:31:51.341Z,9.43
2023-01-07T04:34:21.238Z,9.47
2023-01-07T04:36:49.183Z,9.47
2023-01-07T04:39:15.967Z,9.45
2023-01-07T04:41:42.714Z,9.45
2023-01-07T04:44:12.260Z,9.47
2023-01-07T04:46:38.960Z,9.51
2023-01-07T04:49:06.997Z,9.81
2023-01-07T04:51:33.711Z,9.70
2023-01-07T04:54:02.739Z,9.60
2023-01-07T04:56:35.003Z,9.66
2023-01-07T04:59:04.436Z,9.56
2023-01-07T05:01:31.214Z,9.67
2023-01-07T05:04:01.750Z,9.60
2023-01-07T05:06:31.501Z,9.57
2023-01-07T05:09:01.917Z,9.54
2023-01-07T05:11:28.638Z,9.53
2023-01-07T05:14:00.414Z,9.66
2023-01-07T05:16:27.177Z,9.69
2023-01-07T05:19:00.851Z,9.78
2023-01-07T05:21:27.621Z,9.79
2023-01-07T05:24:01.212Z,9.70
2023-01-07T05:26:27.923Z,9.74
2023-01-07T05:28:54.649Z,10.01
2023-01-07T05:31:21.382Z,10.17
2023-01-07T05:33:48.093Z,9.91
2023-01-07T05:36:18.224Z,9.79
2023-01-07T05:38:44.911Z,9.62
2023-01-07T05:41:11.626Z,9.57
2023-01-07T05:43:38.513Z,9.58
2023-01-07T05:46:08.053Z,9.54
2023-01-07T05:48:34.789Z,9.55
2023-01-07T05:51:10.641Z,9.49
2023-01-07T05:53:37.364Z,9.45
2023-01-07T05:56:07.252Z,9.38
2023-01-07T05:58:37.422Z,9.50
2023-01-07T06:01:09.543Z,9.47
2023-01-07T06:03:37.984Z,9.48
2023-01-07T06:06:05.183Z,9.63
2023-01-07T06:08:31.947Z,9.62
2023-01-07T06:10:58.680Z,9.59
2023-01-07T06:13:25.522Z,9.54
2023-01-07T06:15:52.193Z,9.52
2023-01-07T06:18:18.867Z,9.54
2023-01-07T06:20:47.045Z,9.52
2023-01-07T06:23:13.970Z,9.59
2023-01-07T06:25:40.641Z,9.78
2023-01-07T06:28:07.291Z,10.73
2023-01-07T06:30:33.988Z,10.78
2023-01-07T06:33:00.952Z,10.58
2023-01-07T06:35:27.696Z,10.93
2023-01-07T06:38:09.378Z,11.44
2023-01-07T06:43:25.264Z,11.71
2023-01-07T06:45:52.021Z,11.35
2023-01-07T06:48:27.933Z,11.62
2023-01-07T06:50:57.435Z,11.28
2023-01-07T06:53:34.165Z,11.55
2023-01-07T06:56:00.839Z,11.45
2023-01-07T06:58:27.902Z,11.20
2023-01-07T07:00:55.663Z,11.01
2023-01-07T07:03:22.389Z,11.12
2023-01-07T07:05:49.024Z,10.86
2023-01-07T07:08:16.714Z,11.11
2023-01-07T07:10:43.428Z,11.59
2023-01-07T07:13:10.156Z,11.52
2023-01-07T07:15:44.017Z,11.37
2023-01-07T07:18:11.559Z,11.66
2023-01-07T07:20:38.263Z,11.51
2023-01-07T07:23:04.956Z,11.63
2023-01-07T07:25:34.214Z,11.79
2023-01-07T07:28:00.864Z,11.84
2023-01-07T07:30:45.573Z,11.58
2023-01-07T07:33:16.556Z,11.61
2023-01-07T07:35:47.205Z,11.51
2023-01-07T07:38:13.895Z,11.40
2023-01-07T07:40:40.490Z,10.85
2023-01-07T07:43:12.473Z,11.31
2023-01-07T07:45:41.243Z,10.97
2023-01-07T07:48:14.004Z,11.33
2023-01-07T07:50:40.597Z,11.34
2023-01-07T07:53:07.215Z,10.93
2023-01-07T07:55:33.870Z,10.80
2023-01-07T07:58:00.503Z,10.78
2023-01-07T08:00:28.427Z,11.76
2023-01-07T08:03:05.981Z,11.88
2023-01-07T08:05:34.953Z,12.11
2023-01-07T08:08:04.951Z,12.06
2023-01-07T08:10:31.563Z,11.89
2023-01-07T08:12:58.855Z,12.17
2023-01-07T08:15:25.472Z,11.90
2023-01-07T08:18:06.931Z,11.77
2023-01-07T08:20:37.109Z,11.44
2023-01-07T08:23:07.828Z,11.54
2023-01-07T08:25:41.149Z,11.53
2023-01-07T08:28:08.987Z,11.93
2023-01-07T08:30:40.186Z,11.91
2023-01-07T08:33:08.027Z,11.99
2023-01-07T08:35:34.988Z,11.34
2023-01-07T08:38:14.507Z,10.80
2023-01-07T08:40:41.440Z,10.71
2023-01-07T08:43:17.931Z,10.99
2023-01-07T08:45:50.561Z,11.86
2023-01-07T08:50:57.960Z,11.43
2023-01-07T08:53:25.162Z,11.49
2023-01-07T08:55:51.838Z,11.66
2023-01-07T08:58:21.068Z,11.09
2023-01-07T09:00:47.735Z,10.80
2023-01-07T09:03:14.427Z,11.02
2023-01-07T09:05:47.006Z,11.04
2023-01-07T09:08:13.714Z,10.93
2023-01-07T09:10:42.627Z,11.08
2023-01-07T09:13:09.192Z,11.68
2023-01-07T09:15:38.576Z,12.01
2023-01-07T09:18:08.253Z,12.20
2023-01-07T09:20:34.936Z,12.10
2023-01-07T09:23:04.944Z,11.96
2023-01-07T09:25:34.009Z,11.45
2023-01-07T09:28:00.782Z,11.78
2023-01-07T09:30:27.724Z,11.79
2023-01-07T09:32:55.307Z,11.29
2023-01-07T09:35:21.950Z,11.19
2023-01-07T09:37:48.537Z,11.81
2023-01-07T09:40:27.269Z,11.35
2023-01-07T09:44:00.249Z,11.10
2023-01-07T09:46:18.234Z,10.92
2023-01-07T09:48:54.110Z,10.89
2023-01-07T09:51:35.153Z,10.92
2023-01-07T09:54:12.332Z,11.31
2023-01-07T09:56:40.439Z,11.41
2023-01-07T09:59:11.844Z,11.96
2023-01-07T10:01:50.284Z,12.20
2023-01-07T10:04:42.143Z,11.56
2023-01-07T10:07:17.735Z,11.08
2023-01-07T10:10:09.879Z,11.21
2023-01-07T10:12:54.911Z,11.32
2023-01-07T10:15:40.121Z,11.95
2023-01-07T10:18:12.540Z,12.12
2023-01-07T10:20:44.920Z,12.26
2023-01-07T10:23:21.379Z,12.20
2023-01-07T10:25:56.708Z,11.97
2023-01-07T10:28:43.610Z,11.78
2023-01-07T10:31:17.707Z,12.03
2023-01-07T10:33:49.249Z,11.46
2023-01-07T10:36:26.667Z,11.76
2023-01-07T10:39:12.865Z,12.09
2023-01-07T10:42:13.738Z,11.87
2023-01-07T10:44:57.776Z,11.65
2023-01-07T10:47:33.305Z,11.79
2023-01-07T10:50:18.378Z,11.91
2023-01-07T10:52:57.028Z,11.68
2023-01-07T10:55:58.979Z,12.25
2023-01-07T10:58:33.134Z,11.83
2023-01-07T11:01:03.059Z,12.11
2023-01-07T11:03:31.811Z,11.76
2023-01-07T11:06:05.928Z,11.74
2023-01-07T11:08:38.527Z,11.50
2023-01-07T11:11:09.158Z,11.47
2023-01-07T11:13:37.777Z,11.54
2023-01-07T11:16:25.493Z,11.91
2023-01-07T11:19:09.989Z,11.49
2023-01-07T11:21:42.792Z,11.69
2023-01-07T11:24:29.287Z,11.54
2023-01-07T11:27:05.387Z,11.62
2023-01-07T11:29:43.521Z,11.88
2023-01-07T11:32:29.823Z,11.80
2023-01-07T11:34:59.786Z,11.42
2023-01-07T11:37:45.125Z,11.25
2023-01-07T11:40:14.535Z,11.16
2023-01-07T11:43:23.185Z,11.12
2023-01-07T11:46:19.840Z,11.59
2023-01-07T11:48:56.401Z,11.40
2023-01-07T11:51:27.717Z,11.28
2023-01-07T11:54:04.443Z,11.14
2023-01-07T11:56:46.340Z,11.16
2023-01-07T11:59:15.838Z,11.43
2023-01-07T12:01:58.152Z,11.26
2023-01-07T12:04:31.023Z,11.46
2023-01-07T12:07:14.592Z,11.43
2023-01-07T12:09:43.346Z,11.49
2023-01-07T12:12:26.411Z,11.46
2023-01-07T12:14:53.604Z,11.50
2023-01-07T12:17:27.982Z,11.44
2023-01-07T12:20:30.809Z,11.46
2023-01-07T12:23:11.392Z,11.39
2023-01-07T12:25:58.715Z,11.40
2023-01-07T12:28:40.701Z,11.43
2023-01-07T12:31:10.025Z,11.37
2023-01-07T12:33:57.741Z,11.38
2023-01-07T12:36:46.397Z,11.22
2023-01-07T12:39:26.112Z,11.32
2023-01-07T12:42:18.025Z,11.46
2023-01-07T12:44:52.288Z,11.35
2023-01-07T12:47:30.478Z,11.25
2023-01-07T12:50:17.481Z,11.23
2023-01-07T12:52:48.120Z,11.27
2023-01-07T12:55:31.071Z,11.20
2023-01-07T12:58:26.123Z,11.15
2023-01-07T13:01:04.591Z,11.11
2023-01-07T13:03:53.869Z,11.12
2023-01-07T13:06:28.752Z,11.12
2023-01-07T13:09:10.119Z,11.15
2023-01-07T13:11:52.771Z,11.16
2023-01-07T13:14:31.121Z,11.23
2023-01-07T13:17:18.466Z,11.19
2023-01-07T13:19:45.028Z,11.24
2023-01-07T13:22:41.771Z,11.17
2023-01-07T13:25:20.043Z,11.83
2023-01-07T13:28:03.127Z,12.28
2023-01-07T13:31:15.354Z,11.73
2023-01-07T13:34:10.156Z,11.43
2023-01-07T13:37:14.291Z,11.29
2023-01-07T13:40:05.769Z,11.28
2023-01-07T13:42:46.915Z,11.20
2023-01-07T13:45:31.509Z,11.34
2023-01-07T13:48:01.162Z,11.32
2023-01-07T13:50:59.887Z,11.35
2023-01-07T13:53:28.712Z,11.35
2023-01-07T13:56:21.792Z,11.32
2023-01-07T13:58:58.075Z,11.27
2023-01-07T14:02:06.894Z,11.25
2023-01-07T14:04:36.107Z,11.08
2023-01-07T14:07:02.907Z,11.13
2023-01-07T14:09:36.915Z,11.19
2023-01-07T14:12:29.647Z,11.20
2023-01-07T14:15:23.476Z,11.13
2023-01-07T14:18:42.661Z,11.10
2023-01-07T14:21:33.880Z,11.12
2023-01-07T14:24:29.084Z,11.11
2023-01-07T14:27:33.263Z,11.16
2023-01-07T14:30:16.583Z,11.16
2023-01-07T14:32:46.392Z,11.16
2023-01-07T14:35:16.081Z,11.10
2023-01-07T14:37:46.672Z,11.01
2023-01-07T14:40:28.503Z,11.01
2023-01-07T14:43:21.184Z,11.04
2023-01-07T14:45:47.639Z,11.04
2023-01-07T14:48:17.750Z,11.04
2023-01-07T14:51:13.645Z,11.00
2023-01-07T14:54:06.088Z,10.93
2023-01-07T14:57:25.292Z,10.99
2023-01-07T15:00:13.671Z,10.90
2023-01-07T15:03:00.997Z,10.95
2023-01-07T15:05:47.364Z,10.85
2023-01-07T15:08:27.125Z,10.90
2023-01-07T15:11:00.657Z,10.84
2023-01-07T15:13:30.250Z,11.05
2023-01-07T15:16:01.914Z,10.98
2023-01-07T15:18:30.882Z,10.89
2023-01-07T15:21:16.122Z,10.88
2023-01-07T15:23:47.188Z,10.87
2023-01-07T15:26:32.447Z,10.79
2023-01-07T15:29:06.035Z,10.89
2023-01-07T15:31:37.268Z,10.95
2023-01-07T15:34:17.059Z,10.87
2023-01-07T15:36:49.941Z,10.87
2023-01-07T15:39:28.662Z,10.87
2023-01-07T15:41:57.219Z,10.84
2023-01-07T15:44:29.215Z,10.80
2023-01-07T15:46:56.270Z,10.83
2023-01-07T15:49:32.548Z,10.75
2023-01-07T15:52:04.108Z,10.70
2023-01-07T15:54:40.344Z,10.79
2023-01-07T15:57:09.391Z,10.78
2023-01-07T15:59:46.772Z,10.84
2023-01-07T16:02:37.871Z,10.94
2023-01-07T16:05:06.433Z,10.80
2023-01-07T16:07:41.309Z,10.90
2023-01-07T16:10:20.668Z,10.80
2023-01-07T16:12:52.743Z,10.81
2023-01-07T16:15:22.258Z,10.73
2023-01-07T16:18:02.378Z,10.70
2023-01-07T16:20:37.149Z,10.93
2023-01-07T16:23:09.703Z,10.78
2023-01-07T16:25:45.027Z,10.78
2023-01-07T16:28:30.943Z,10.73
2023-01-07T16:30:59.738Z,10.66
2023-01-07T16:33:28.924Z,10.61
2023-01-07T16:36:01.528Z,10.61
2023-01-07T16:38:29.002Z,10.67
2023-01-07T16:41:04.575Z,10.70
2023-01-07T16:43:46.332Z,10.66
2023-01-07T16:46:19.439Z,10.67
2023-01-07T16:49:08.518Z,10.63
2023-01-07T16:51:40.549Z,10.70
2023-01-07T16:54:31.743Z,10.70
2023-01-07T16:57:11.700Z,10.71
2023-01-07T16:59:47.897Z,10.75
2023-01-07T17:02:36.903Z,10.67
2023-01-07T17:05:29.763Z,10.62
2023-01-07T17:08:00.098Z,10.56
2023-01-07T17:10:30.302Z,10.61
2023-01-07T17:13:02.727Z,10.60
2023-01-07T17:15:32.033Z,10.58
2023-01-07T17:18:16.901Z,10.60
2023-01-07T17:21:00.546Z,10.56
2023-01-07T17:23:27.451Z,10.51
2023-01-07T17:25:58.739Z,10.47
2023-01-07T17:28:27.350Z,10.52
2023-01-07T17:30:54.247Z,10.48
2023-01-07T17:33:23.560Z,10.48
2023-01-07T17:35:50.917Z,10.52
2023-01-07T17:38:18.123Z,10.78
2023-01-07T17:40:45.453Z,10.74
2023-01-07T17:43:24.355Z,10.68
2023-01-07T17:45:51.095Z,10.64
2023-01-07T17:48:17.682Z,10.88
2023-01-07T17:50:47.301Z,10.90
2023-01-07T17:53:22.117Z,10.69
2023-01-07T17:55:57.817Z,10.52
2023-01-07T17:58:32.744Z,10.56
2023-01-07T18:01:01.988Z,10.65
2023-01-07T18:03:33.717Z,10.69
2023-01-07T18:06:00.321Z,10.83
2023-01-07T18:08:27.184Z,10.85
2023-01-07T18:10:55.137Z,10.78
2023-01-07T18:13:21.770Z,10.62
2023-01-07T18:15:48.581Z,10.66
2023-01-07T18:18:15.174Z,10.54
2023-01-07T18:20:41.810Z,10.72
2023-01-07T18:23:11.699Z,10.54
2023-01-07T18:25:40.733Z,10.49
2023-01-07T18:28:07.376Z,10.51
2023-01-07T18:30:42.943Z,10.46
2023-01-07T18:33:11.185Z,10.45
2023-01-07T18:35:41.303Z,10.38
2023-01-07T18:38:16.477Z,10.37
2023-01-07T18:40:43.828Z,10.37
2023-01-07T18:43:19.074Z,10.38
2023-01-07T18:45:47.529Z,10.37
2023-01-07T18:48:17.164Z,10.34
2023-01-07T18:50:45.972Z,10.29
2023-01-07T18:53:18.327Z,10.31
2023-01-07T18:56:05.876Z,10.26
2023-01-07T18:58:36.858Z,10.30
2023-01-07T19:01:05.378Z,10.22
2023-01-07T19:03:35.069Z,10.21
2023-01-07T19:06:06.898Z,10.18
2023-01-07T19:08:36.783Z,10.21
2023-01-07T19:11:11.935Z,10.19
2023-01-07T19:13:38.989Z,10.24
2023-01-07T19:16:12.882Z,10.19
2023-01-07T19:18:42.711Z,10.21
2023-01-07T19:21:12.353Z,10.23
2023-01-07T19:23:46.698Z,10.23
2023-01-07T19:26:13.390Z,10.17
2023-01-07T19:28:43.252Z,10.14
2023-01-07T19:31:18.725Z,10.07
2023-01-07T19:33:45.363Z,10.07
2023-01-07T19:36:17.983Z,10.05
2023-01-07T19:38:47.185Z,10.04
2023-01-07T19:41:17.087Z,10.04
2023-01-07T19:43:44.353Z,10.00
2023-01-07T19:46:11.990Z,10.04
2023-01-07T19:48:43.219Z,10.00
2023-01-07T19:51:12.376Z,10.03
2023-01-07T19:53:39.294Z,9.98
2023-01-07T19:56:15.016Z,9.96
2023-01-07T19:58:52.231Z,9.94
2023-01-07T20:01:18.934Z,9.98
2023-01-07T20:03:48.469Z,10.08
2023-01-07T20:06:17.505Z,10.16
2023-01-07T20:08:47.625Z,10.11
2023-01-07T20:11:15.090Z,10.01
2023-01-07T20:13:44.693Z,9.96
2023-01-07T20:16:17.985Z,9.97
2023-01-07T20:18:48.465Z,9.97
2023-01-07T20:21:17.461Z,9.99
2023-01-07T20:23:47.426Z,10.00
2023-01-07T20:26:30.214Z,10.00
2023-01-07T20:29:03.828Z,9.99
2023-01-07T20:31:33.852Z,10.01
2023-01-07T20:34:06.038Z,10.02
2023-01-07T20:36:32.777Z,10.00
2023-01-07T20:39:04.531Z,9.98
2023-01-07T20:41:34.362Z,10.01
2023-01-07T20:44:07.250Z,10.00
2023-01-07T20:46:35.699Z,9.94
2023-01-07T20:49:07.369Z,9.93
2023-01-07T20:51:43.296Z,9.91
2023-01-07T20:54:11.005Z,9.89
2023-01-07T20:56:40.853Z,9.84
2023-01-07T20:59:10.903Z,9.80
2023-01-07T21:01:40.572Z,9.80
2023-01-07T21:04:14.129Z,9.78
2023-01-07T21:06:41.365Z,9.76
2023-01-07T21:09:10.691Z,9.80
2023-01-07T21:11:43.321Z,9.74
2023-01-07T21:14:12.066Z,9.74
2023-01-07T21:16:38.870Z,9.71
2023-01-07T21:19:11.559Z,9.75
2023-01-07T21:21:39.948Z,9.74
2023-01-07T21:24:06.641Z,9.71
2023-01-07T21:26:36.524Z,9.72
2023-01-07T21:29:08.133Z,9.67
2023-01-07T21:31:35.172Z,9.69
2023-01-07T21:34:13.337Z,9.67
2023-01-07T21:36:40.318Z,9.62
2023-01-07T21:39:07.197Z,9.65
2023-01-07T21:41:34.158Z,9.60
2023-01-07T21:44:15.855Z,9.71
2023-01-07T21:46:42.480Z,9.73
2023-01-07T21:49:12.173Z,9.67
2023-01-07T21:51:46.206Z,9.61
2023-01-07T21:54:18.486Z,9.61
2023-01-07T21:56:45.080Z,9.59
2023-01-07T21:59:11.766Z,9.60
2023-01-07T22:01:40.191Z,9.56
2023-01-07T22:04:07.209Z,9.72
2023-01-07T22:06:41.139Z,9.84
2023-01-07T22:09:17.535Z,9.72
2023-01-07T22:11:44.276Z,9.59
2023-01-07T22:14:16.895Z,10.27
2023-01-07T22:16:48.231Z,10.31
2023-01-07T22:19:15.866Z,9.96
2023-01-07T22:21:42.803Z,10.36
2023-01-07T22:24:12.298Z,10.14
2023-01-07T22:26:38.941Z,9.78
2023-01-07T22:29:07.984Z,9.69
2023-01-07T22:31:37.038Z,9.65
2023-01-07T22:34:12.828Z,9.63
2023-01-07T22:36:46.246Z,10.00
2023-01-07T22:39:31.864Z,9.84
2023-01-07T22:42:03.132Z,9.70
2023-01-07T22:44:40.268Z,9.64
2023-01-07T22:47:09.503Z,9.65
2023-01-07T22:49:41.069Z,9.62
2023-01-07T22:52:19.971Z,9.60
2023-01-07T22:54:49.522Z,9.63
2023-01-07T22:57:16.422Z,9.67
2023-01-07T22:59:43.484Z,9.70
2023-01-07T23:02:13.742Z,9.72
2023-01-07T23:04:47.098Z,9.72
2023-01-07T23:07:16.684Z,9.65
2023-01-07T23:09:43.370Z,9.83
2023-01-07T23:12:11.671Z,9.92
2023-01-07T23:14:38.353Z,10.19
2023-01-07T23:17:05.077Z,9.97
2023-01-07T23:19:37.427Z,9.90
2023-01-07T23:22:04.089Z,9.86
2023-01-07T23:24:30.705Z,9.85
2023-01-07T23:27:00.168Z,9.97
2023-01-07T23:29:26.778Z,9.93
2023-01-07T23:31:56.220Z,10.10
2023-01-07T23:34:24.034Z,10.22
2023-01-07T23:36:54.969Z,10.30
2023-01-07T23:39:21.681Z,10.30
2023-01-07T23:41:48.346Z,10.48
2023-01-07T23:44:15.032Z,10.52
2023-01-07T23:46:41.705Z,10.73
2023-01-07T23:49:08.377Z,10.60
2023-01-07T23:51:37.752Z,10.30
2023-01-07T23:54:04.381Z,9.89
2023-01-07T23:56:34.810Z,9.94
2023-01-07T23:59:03.064Z,9.94
